Time;durP1;ratioP1;P1;durP2;ratioP2;P2;SDS_P1;SDS_P2;PMS_P1;PMS_P2;Temp;Humidity;BMP_temperature;BMP_pressure;BME280_temperature;BME280_humidity;BME280_pressure;Samples;Min_cycle;Max_cycle;Signal;HPM_P1;HPM_P2
2022/12/25 00:01:30;;;;;;;2.83;1.90;;;;;;;;;;5070249;28;20390;-77
2022/12/25 00:03:56;;;;;;;2.28;1.73;;;;;;;;;;5050944;28;20024;-76
2022/12/25 00:06:24;;;;;;;2.20;1.80;;;;;;;;;;5069820;28;20099;-76
2022/12/25 00:08:52;;;;;;;3.42;1.92;;;;;;;;;;5069171;28;20060;-77
2022/12/25 00:11:19;;;;;;;2.10;1.70;;;;;;;;;;5069891;28;20048;-76
2022/12/25 00:13:45;;;;;;;2.95;1.60;;;;;;;;;;5051819;28;20071;-76
2022/12/25 00:16:31;;;;;;;2.53;1.60;;;;;;;;;;5069924;28;20028;-76
2022/12/25 00:18:57;;;;;;;2.08;1.60;;;;;;;;;;5069584;28;20158;-76
2022/12/25 00:21:23;;;;;;;3.50;1.70;;;;;;;;;;5069832;28;20032;-76
2022/12/25 00:23:53;;;;;;;2.47;1.70;;;;;;;;;;5069485;28;20035;-76
2022/12/25 00:26:22;;;;;;;2.40;1.63;;;;;;;;;;5048443;28;20032;-76
2022/12/25 00:28:52;;;;;;;2.28;1.60;;;;;;;;;;5067844;28;20499;-75
2022/12/25 00:31:20;;;;;;;6.05;1.90;;;;;;;;;;5069982;28;20021;-76
2022/12/25 00:33:49;;;;;;;2.30;2.03;;;;;;;;;;5068045;28;20047;-77
2022/12/25 00:36:16;;;;;;;4.20;1.75;;;;;;;;;;5068479;28;20537;-76
2022/12/25 00:38:42;;;;;;;3.35;1.98;;;;;;;;;;5069544;28;20040;-76
2022/12/25 00:41:10;;;;;;;2.25;1.67;;;;;;;;;;5069935;28;20036;-76
2022/12/25 00:43:37;;;;;;;3.40;1.90;;;;;;;;;;5067737;28;20490;-76
2022/12/25 00:46:05;;;;;;;4.47;2.03;;;;;;;;;;5051477;28;20035;-76
2022/12/25 00:48:31;;;;;;;3.78;1.83;;;;;;;;;;5066308;28;20104;-76
2022/12/25 00:51:00;;;;;;;3.47;1.33;;;;;;;;;;5069710;28;20047;-76
2022/12/25 00:53:29;;;;;;;1.42;1.30;;;;;;;;;;5067695;28;20025;-76
2022/12/25 00:56:00;;;;;;;2.03;1.60;;;;;;;;;;5069010;28;20028;-77
2022/12/25 00:58:29;;;;;;;2.05;1.23;;;;;;;;;;5069730;28;20048;-76
2022/12/25 01:00:55;;;;;;;3.10;1.55;;;;;;;;;;5067636;28;20070;-77
2022/12/25 01:03:21;;;;;;;3.25;1.40;;;;;;;;;;5068721;28;20051;-76
2022/12/25 01:05:58;;;;;;;2.80;1.80;;;;;;;;;;5066696;28;20025;-76
2022/12/25 01:08:24;;;;;;;3.67;1.40;;;;;;;;;;5046381;28;20053;-76
2022/12/25 01:10:54;;;;;;;1.20;1.10;;;;;;;;;;5068493;28;20040;-76
2022/12/25 01:13:19;;;;;;;1.60;1.23;;;;;;;;;;5067439;28;20050;-75
2022/12/25 01:15:44;;;;;;;2.05;1.40;;;;;;;;;;5063995;28;20379;-76
2022/12/25 01:18:12;;;;;;;1.80;1.63;;;;;;;;;;5070198;28;20028;-76
2022/12/25 01:20:37;;;;;;;3.50;1.50;;;;;;;;;;5056965;28;20032;-75
2022/12/25 01:23:03;;;;;;;2.35;1.25;;;;;;;;;;5069708;28;20024;-76
2022/12/25 01:25:30;;;;;;;1.65;1.30;;;;;;;;;;5067720;28;20060;-76
2022/12/25 01:27:56;;;;;;;1.65;1.27;;;;;;;;;;5050363;28;20029;-76
2022/12/25 01:30:21;;;;;;;1.90;1.40;;;;;;;;;;5069836;28;20032;-76
2022/12/25 01:32:46;;;;;;;2.28;1.60;;;;;;;;;;5068543;28;20560;-76
2022/12/25 01:35:14;;;;;;;3.28;1.70;;;;;;;;;;5070520;28;20029;-75
2022/12/25 01:37:40;;;;;;;3.05;1.73;;;;;;;;;;5072848;28;20032;-74
2022/12/25 01:40:06;;;;;;;3.78;1.65;;;;;;;;;;5076369;28;20046;-76
2022/12/25 01:42:31;;;;;;;2.90;1.50;;;;;;;;;;5077732;28;20111;-74
2022/12/25 01:45:32;;;;;;;2.67;1.63;;;;;;;;;;5075279;28;20047;-76
2022/12/25 01:48:05;;;;;;;1.85;1.42;;;;;;;;;;5077025;28;20089;-75
2022/12/25 01:50:33;;;;;;;3.70;1.70;;;;;;;;;;5091753;28;20036;-76
2022/12/25 01:52:59;;;;;;;2.63;1.77;;;;;;;;;;5075474;28;20107;-77
2022/12/25 01:55:27;;;;;;;2.33;1.65;;;;;;;;;;5072856;28;20108;-77
2022/12/25 01:57:53;;;;;;;3.63;2.17;;;;;;;;;;5055271;28;20028;-76
2022/12/25 02:00:19;;;;;;;3.17;2.10;;;;;;;;;;5071658;28;20405;-76
2022/12/25 02:02:47;;;;;;;2.97;1.83;;;;;;;;;;5072678;28;20039;-76
2022/12/25 02:05:24;;;;;;;3.53;1.90;;;;;;;;;;5073072;28;20024;-76
2022/12/25 02:07:51;;;;;;;2.03;1.60;;;;;;;;;;5053434;28;20099;-76
2022/12/25 02:10:19;;;;;;;2.28;1.77;;;;;;;;;;5072693;28;20437;-77
2022/12/25 02:12:46;;;;;;;2.10;1.77;;;;;;;;;;5072203;28;20103;-76
2022/12/25 02:15:16;;;;;;;2.42;1.70;;;;;;;;;;5069461;28;20024;-76
2022/12/25 02:18:01;;;;;;;3.05;2.00;;;;;;;;;;5070316;28;20028;-76
2022/12/25 02:20:36;;;;;;;2.38;1.88;;;;;;;;;;5068363;28;20586;-76
2022/12/25 02:23:35;;;;;;;2.63;1.77;;;;;;;;;;5071860;28;20579;-77
2022/12/25 02:26:22;;;;;;;2.90;1.77;;;;;;;;;;5051829;28;20020;-76
2022/12/25 02:28:49;;;;;;;2.58;2.00;;;;;;;;;;5072940;28;20087;-76
2022/12/25 02:31:31;;;;;;;2.47;1.80;;;;;;;;;;5055021;28;20024;-76
2022/12/25 02:34:17;;;;;;;2.83;1.73;;;;;;;;;;5070349;28;20487;-76
2022/12/25 02:37:01;;;;;;;2.85;1.83;;;;;;;;;;5069162;28;20040;-76
2022/12/25 03:08:09;;;;;;;3.80;2.47;;;;;;;;;;5071217;28;20027;-76
2022/12/25 03:13:25;;;;;;;6.45;3.35;;;;;;;;;;5070401;28;19931;-77
2022/12/25 03:18:37;;;;;;;3.53;2.55;;;;;;;;;;5071103;28;20059;-76
2022/12/25 03:26:55;;;;;;;5.57;2.35;;;;;;;;;;5047681;28;20187;-76
2022/12/25 03:32:18;;;;;;;5.18;2.80;;;;;;;;;;5070944;28;19919;-76
2022/12/25 03:35:22;;;;;;;3.67;2.30;;;;;;;;;;5076506;28;20021;-75
2022/12/25 04:36:20;;;;;;;2.40;1.90;;;;;;;;;;5067896;28;20039;-76
2022/12/25 04:38:46;;;;;;;2.40;1.90;;;;;;;;;;5070097;28;20029;-76
2022/12/25 04:41:12;;;;;;;2.42;1.92;;;;;;;;;;5067206;28;20033;-76
2022/12/25 04:43:40;;;;;;;1.60;1.50;;;;;;;;;;5067090;28;20021;-77
2022/12/25 04:46:05;;;;;;;3.42;1.90;;;;;;;;;;5066937;28;20028;-77
2022/12/25 04:48:34;;;;;;;2.30;1.70;;;;;;;;;;5069226;28;20043;-76
2022/12/25 04:51:10;;;;;;;2.20;1.80;;;;;;;;;;5068895;28;20487;-76
2022/12/25 04:53:38;;;;;;;1.83;1.70;;;;;;;;;;5050973;28;20439;-76
2022/12/25 04:56:03;;;;;;;3.03;1.65;;;;;;;;;;5066284;28;20040;-76
2022/12/25 04:58:30;;;;;;;2.80;1.80;;;;;;;;;;5069501;28;20021;-77
2022/12/25 05:00:59;;;;;;;1.90;1.60;;;;;;;;;;5064757;28;20119;-76
2022/12/25 05:03:24;;;;;;;2.03;1.83;;;;;;;;;;5064132;28;20021;-76
2022/12/25 05:05:52;;;;;;;2.03;1.50;;;;;;;;;;5049340;28;20020;-76
2022/12/25 05:08:17;;;;;;;3.25;1.77;;;;;;;;;;5070029;28;20039;-77
2022/12/25 05:10:45;;;;;;;1.92;1.60;;;;;;;;;;5070429;28;20024;-77
2022/12/25 05:13:10;;;;;;;2.63;1.95;;;;;;;;;;5071480;28;20021;-76
2022/12/25 05:15:38;;;;;;;2.40;1.70;;;;;;;;;;5070839;28;20031;-76
2022/12/25 05:18:04;;;;;;;2.78;1.88;;;;;;;;;;5082601;28;20032;-77
2022/12/25 05:20:29;;;;;;;2.65;1.60;;;;;;;;;;5070836;28;20047;-77
2022/12/25 05:22:55;;;;;;;2.08;1.83;;;;;;;;;;5070562;28;20029;-77
2022/12/25 05:25:20;;;;;;;3.70;1.60;;;;;;;;;;5054713;28;20017;-76
2022/12/25 05:27:45;;;;;;;1.83;1.63;;;;;;;;;;5055531;28;20028;-76
2022/12/25 05:30:11;;;;;;;3.85;1.70;;;;;;;;;;5071041;28;20025;-75
2022/12/25 05:32:37;;;;;;;2.60;1.73;;;;;;;;;;5073374;28;20024;-76
2022/12/25 05:35:02;;;;;;;2.28;1.60;;;;;;;;;;5071625;28;20099;-76
2022/12/25 05:37:28;;;;;;;1.80;1.33;;;;;;;;;;5070513;28;20482;-76
2022/12/25 05:39:53;;;;;;;1.95;1.48;;;;;;;;;;5073441;28;20028;-76
2022/12/25 05:42:21;;;;;;;2.10;1.80;;;;;;;;;;5070930;28;20388;-77
2022/12/25 05:44:46;;;;;;;1.70;1.33;;;;;;;;;;5071220;28;20083;-76
2022/12/25 05:47:12;;;;;;;2.38;1.63;;;;;;;;;;5072713;28;20459;-76
2022/12/25 05:49:37;;;;;;;2.22;1.70;;;;;;;;;;5073004;28;20024;-76
2022/12/25 05:52:03;;;;;;;2.75;1.70;;;;;;;;;;5071187;28;20035;-76
2022/12/25 05:54:28;;;;;;;2.10;1.60;;;;;;;;;;5054249;28;20048;-76
2022/12/25 05:56:56;;;;;;;1.60;1.50;;;;;;;;;;5071602;28;20044;-76
2022/12/25 05:59:21;;;;;;;1.98;1.60;;;;;;;;;;5070115;28;20028;-77
2022/12/25 06:01:46;;;;;;;1.73;1.50;;;;;;;;;;5072157;28;20020;-77
2022/12/25 06:04:12;;;;;;;1.80;1.40;;;;;;;;;;5072406;28;20371;-76
2022/12/25 06:06:40;;;;;;;2.90;1.50;;;;;;;;;;5070847;28;20032;-77
2022/12/25 06:09:10;;;;;;;3.80;1.75;;;;;;;;;;5052320;28;20044;-77
2022/12/25 06:11:35;;;;;;;3.25;1.50;;;;;;;;;;5072548;28;20506;-77
2022/12/25 06:14:04;;;;;;;2.92;1.52;;;;;;;;;;5072178;28;20039;-78
2022/12/25 06:16:29;;;;;;;4.47;1.70;;;;;;;;;;5071588;28;20498;-77
2022/12/25 06:18:55;;;;;;;2.15;1.52;;;;;;;;;;5071534;28;20070;-78
2022/12/25 06:21:23;;;;;;;4.25;1.90;;;;;;;;;;5072225;28;20116;-78
2022/12/25 06:23:49;;;;;;;2.05;1.45;;;;;;;;;;5054064;28;21593;-77
2022/12/25 06:26:17;;;;;;;2.20;1.50;;;;;;;;;;5072308;28;20029;-77
2022/12/25 06:28:43;;;;;;;3.47;2.20;;;;;;;;;;5053796;28;20535;-78
2022/12/25 06:31:14;;;;;;;3.28;1.67;;;;;;;;;;5071661;28;20039;-77
2022/12/25 06:33:40;;;;;;;2.50;1.63;;;;;;;;;;5078008;28;20124;-77
2022/12/25 06:36:26;;;;;;;2.28;1.90;;;;;;;;;;5071865;28;20028;-77
2022/12/25 06:38:52;;;;;;;2.17;1.58;;;;;;;;;;5069637;28;20124;-77
2022/12/25 06:41:20;;;;;;;2.63;1.60;;;;;;;;;;5070280;28;20118;-78
2022/12/25 06:43:51;;;;;;;3.90;1.80;;;;;;;;;;5072119;28;20029;-78
2022/12/25 06:46:17;;;;;;;3.40;1.85;;;;;;;;;;5054402;28;20056;-77
2022/12/25 06:48:49;;;;;;;2.60;1.58;;;;;;;;;;5053335;28;20033;-77
2022/12/25 06:51:19;;;;;;;3.63;1.48;;;;;;;;;;5053724;28;20024;-77
2022/12/25 06:53:46;;;;;;;2.95;1.92;;;;;;;;;;5067704;28;20115;-77
2022/12/25 06:56:16;;;;;;;2.17;1.63;;;;;;;;;;5071123;28;20033;-77
2022/12/25 06:58:45;;;;;;;2.22;1.88;;;;;;;;;;5051942;28;20024;-77
2022/12/25 07:01:26;;;;;;;2.92;1.70;;;;;;;;;;5071801;28;20025;-77
2022/12/25 07:03:55;;;;;;;2.85;1.83;;;;;;;;;;5069742;28;20087;-76
2022/12/25 07:06:21;;;;;;;2.85;1.60;;;;;;;;;;5068943;28;20406;-77
2022/12/25 07:08:49;;;;;;;2.72;1.90;;;;;;;;;;5071522;28;20033;-77
2022/12/25 07:11:16;;;;;;;3.25;1.70;;;;;;;;;;5068257;28;20044;-78
2022/12/25 07:13:42;;;;;;;3.05;1.73;;;;;;;;;;5068946;28;20020;-77
2022/12/25 07:16:11;;;;;;;2.20;2.00;;;;;;;;;;5068598;28;20406;-77
2022/12/25 07:18:37;;;;;;;2.67;2.05;;;;;;;;;;5069973;28;20039;-77
2022/12/25 07:21:10;;;;;;;3.15;1.95;;;;;;;;;;5070682;28;20479;-78
2022/12/25 07:23:35;;;;;;;3.22;2.25;;;;;;;;;;5063800;28;20044;-77
2022/12/25 07:26:01;;;;;;;3.50;2.05;;;;;;;;;;5069361;28;20103;-77
2022/12/25 07:28:27;;;;;;;4.43;2.65;;;;;;;;;;5068845;28;20032;-77
2022/12/25 07:31:02;;;;;;;2.78;2.15;;;;;;;;;;5070917;28;20024;-77
2022/12/25 07:33:30;;;;;;;2.85;2.15;;;;;;;;;;5070421;28;20170;-77
2022/12/25 07:35:55;;;;;;;3.72;2.28;;;;;;;;;;5066495;28;20497;-77
2022/12/25 07:38:21;;;;;;;3.00;2.38;;;;;;;;;;5070605;28;20107;-77
2022/12/25 07:40:46;;;;;;;5.18;2.20;;;;;;;;;;5070060;28;20027;-77
2022/12/25 07:43:12;;;;;;;5.60;3.10;;;;;;;;;;5068416;28;20051;-77
2022/12/25 07:45:40;;;;;;;2.90;2.20;;;;;;;;;;5068607;28;20395;-77
2022/12/25 07:48:05;;;;;;;4.05;2.20;;;;;;;;;;5085350;28;20970;-78
2022/12/25 07:50:31;;;;;;;2.60;2.08;;;;;;;;;;5070987;28;20020;-77
2022/12/25 07:52:57;;;;;;;3.33;2.20;;;;;;;;;;5052584;28;20017;-78
2022/12/25 07:55:29;;;;;;;4.00;2.63;;;;;;;;;;5070721;28;20060;-76
2022/12/25 07:57:55;;;;;;;5.50;3.45;;;;;;;;;;5068593;28;20024;-76
2022/12/25 08:00:20;;;;;;;3.60;2.40;;;;;;;;;;5054251;28;20502;-78
2022/12/25 08:02:49;;;;;;;4.45;2.70;;;;;;;;;;5073083;28;20040;-77
2022/12/25 08:05:18;;;;;;;5.53;3.10;;;;;;;;;;5071966;28;20391;-77
2022/12/25 08:07:44;;;;;;;4.38;2.78;;;;;;;;;;5077535;28;20037;-75
2022/12/25 08:10:10;;;;;;;2.35;2.15;;;;;;;;;;5075559;28;20081;-75
2022/12/25 08:12:35;;;;;;;2.60;2.10;;;;;;;;;;5056032;28;20071;-75
2022/12/25 08:15:03;;;;;;;2.78;2.10;;;;;;;;;;5054264;28;20082;-75
2022/12/25 08:17:31;;;;;;;4.97;2.88;;;;;;;;;;5054320;28;20024;-77
2022/12/25 08:19:56;;;;;;;5.30;2.40;;;;;;;;;;5067431;28;20452;-75
2022/12/25 08:22:21;;;;;;;4.55;3.08;;;;;;;;;;5077785;28;20318;-76
2022/12/25 08:24:49;;;;;;;3.00;2.25;;;;;;;;;;5075578;28;20016;-77
2022/12/25 08:27:15;;;;;;;2.78;2.08;;;;;;;;;;5069847;28;20520;-77
2022/12/25 08:29:43;;;;;;;3.38;2.25;;;;;;;;;;5068417;28;20020;-76
2022/12/25 08:32:08;;;;;;;3.00;2.10;;;;;;;;;;5068070;28;20020;-76
2022/12/25 08:34:38;;;;;;;4.18;2.20;;;;;;;;;;5069889;28;20493;-77
2022/12/25 08:37:06;;;;;;;2.22;2.00;;;;;;;;;;5063359;28;20036;-77
2022/12/25 08:39:32;;;;;;;4.75;2.13;;;;;;;;;;5048496;28;20382;-76
2022/12/25 08:41:57;;;;;;;2.35;1.95;;;;;;;;;;5052378;28;20027;-77
2022/12/25 08:44:23;;;;;;;2.00;1.60;;;;;;;;;;5070316;28;20024;-78
2022/12/25 08:46:48;;;;;;;3.90;1.90;;;;;;;;;;5069766;28;20028;-77
2022/12/25 08:49:15;;;;;;;2.03;1.45;;;;;;;;;;5070079;28;20093;-78
2022/12/25 08:51:43;;;;;;;2.53;1.80;;;;;;;;;;5067107;28;20068;-78
2022/12/25 08:54:08;;;;;;;4.28;1.85;;;;;;;;;;5069880;28;20510;-78
2022/12/25 08:56:35;;;;;;;2.65;1.77;;;;;;;;;;5069944;28;20028;-79
2022/12/25 08:59:01;;;;;;;3.08;1.60;;;;;;;;;;5069277;28;20032;-78
2022/12/25 09:01:29;;;;;;;3.22;1.70;;;;;;;;;;5062182;28;20375;-78
2022/12/25 09:03:57;;;;;;;5.15;2.15;;;;;;;;;;5067450;28;20024;-77
2022/12/25 09:06:24;;;;;;;3.83;2.40;;;;;;;;;;5070112;28;20029;-78
2022/12/25 09:08:50;;;;;;;4.63;2.35;;;;;;;;;;5051753;28;20081;-77
2022/12/25 09:11:17;;;;;;;3.65;1.90;;;;;;;;;;5068357;28;20020;-78
2022/12/25 09:13:45;;;;;;;3.70;2.80;;;;;;;;;;5068899;28;20376;-78
2022/12/25 09:16:12;;;;;;;3.08;2.45;;;;;;;;;;5068480;28;20494;-77
2022/12/25 09:18:38;;;;;;;4.05;1.83;;;;;;;;;;5067472;28;20032;-78
2022/12/25 09:21:06;;;;;;;2.65;1.95;;;;;;;;;;5069541;28;20050;-77
2022/12/25 09:23:33;;;;;;;3.22;2.22;;;;;;;;;;5067305;28;20046;-78
2022/12/25 09:26:00;;;;;;;3.72;2.15;;;;;;;;;;5069878;28;20407;-75
2022/12/25 09:28:25;;;;;;;2.33;1.98;;;;;;;;;;5051296;28;20020;-79
2022/12/25 09:30:52;;;;;;;3.05;1.83;;;;;;;;;;5069897;28;20105;-78
2022/12/25 09:33:19;;;;;;;4.53;2.75;;;;;;;;;;5069707;28;20029;-77
2022/12/25 09:35:52;;;;;;;3.53;2.00;;;;;;;;;;5065756;28;20032;-77
2022/12/25 09:38:18;;;;;;;32.65;3.13;;;;;;;;;;5071580;28;20028;-76
2022/12/25 09:40:47;;;;;;;8.93;2.90;;;;;;;;;;5077611;28;20102;-76
2022/12/25 09:43:16;;;;;;;4.07;2.03;;;;;;;;;;5072251;28;20074;-75
2022/12/25 09:45:42;;;;;;;2.97;2.00;;;;;;;;;;5072917;28;20104;-77
2022/12/25 09:48:14;;;;;;;2.28;1.50;;;;;;;;;;5065668;28;20035;-78
2022/12/25 09:50:48;;;;;;;3.53;1.88;;;;;;;;;;5069630;28;20115;-79
2022/12/25 09:53:25;;;;;;;3.30;1.63;;;;;;;;;;5069813;28;20051;-77
2022/12/25 09:56:18;;;;;;;2.38;1.77;;;;;;;;;;5072447;28;20479;-76
2022/12/25 09:58:44;;;;;;;4.88;2.20;;;;;;;;;;5055398;28;20036;-77
2022/12/25 10:01:30;;;;;;;3.17;2.00;;;;;;;;;;5067565;28;20028;-77
2022/12/25 10:04:32;;;;;;;2.05;1.60;;;;;;;;;;5070557;28;20029;-76
2022/12/25 10:07:16;;;;;;;1.80;1.40;;;;;;;;;;5069247;28;20086;-78
2022/12/25 10:09:54;;;;;;;2.35;1.80;;;;;;;;;;5053924;28;20044;-77
2022/12/25 10:12:37;;;;;;;2.30;1.53;;;;;;;;;;5054227;28;20414;-77
2022/12/25 10:15:20;;;;;;;3.10;1.80;;;;;;;;;;5066091;28;20028;-77
2022/12/25 10:17:51;;;;;;;1.83;1.40;;;;;;;;;;5081945;28;20108;-80
2022/12/25 10:20:25;;;;;;;3.60;1.70;;;;;;;;;;5072932;28;20028;-77
2022/12/25 10:22:57;;;;;;;3.22;1.67;;;;;;;;;;5069380;28;20103;-78
2022/12/25 10:25:23;;;;;;;2.55;2.05;;;;;;;;;;5071789;28;20020;-77
2022/12/25 10:27:57;;;;;;;3.97;1.52;;;;;;;;;;5070200;28;20047;-78
2022/12/25 10:30:25;;;;;;;1.85;1.20;;;;;;;;;;5066742;28;20024;-78
2022/12/25 10:32:51;;;;;;;2.00;1.60;;;;;;;;;;5053174;28;20040;-77
2022/12/25 10:35:20;;;;;;;2.85;1.58;;;;;;;;;;5070951;28;20050;-78
2022/12/25 10:38:14;;;;;;;5.13;1.65;;;;;;;;;;5071645;28;20048;-77
2022/12/25 10:40:45;;;;;;;2.25;1.52;;;;;;;;;;5044653;28;20389;-78
2022/12/25 10:43:17;;;;;;;1.42;1.33;;;;;;;;;;5069626;28;20027;-77
2022/12/25 10:45:47;;;;;;;2.08;1.30;;;;;;;;;;5070342;28;20413;-77
2022/12/25 10:48:26;;;;;;;1.88;1.50;;;;;;;;;;5069045;28;20028;-77
2022/12/25 10:50:51;;;;;;;2.08;1.67;;;;;;;;;;5069119;28;20027;-76
2022/12/25 10:53:23;;;;;;;2.10;1.88;;;;;;;;;;5070824;28;20024;-77
2022/12/25 10:56:03;;;;;;;1.30;1.20;;;;;;;;;;5053916;28;20093;-77
2022/12/25 10:58:30;;;;;;;1.50;1.23;;;;;;;;;;5071463;28;20111;-77
2022/12/25 11:01:00;;;;;;;2.05;1.25;;;;;;;;;;5069229;28;20390;-78
2022/12/25 11:03:30;;;;;;;4.32;2.40;;;;;;;;;;5069434;28;20440;-77
2022/12/25 11:05:57;;;;;;;2.97;2.05;;;;;;;;;;5070245;28;20100;-77
2022/12/25 11:08:27;;;;;;;1.60;1.30;;;;;;;;;;5069469;28;20032;-77
2022/12/25 11:11:04;;;;;;;;;;;;;;;;;;5052954;28;20062;-78
2022/12/25 11:13:33;;;;;;;2.38;1.40;;;;;;;;;;5050967;28;19913;-77
2022/12/25 11:16:08;;;;;;;1.70;1.50;;;;;;;;;;5067141;28;20037;-78
2022/12/25 11:18:49;;;;;;;1.75;1.33;;;;;;;;;;5065621;28;20033;-78
2022/12/25 11:21:17;;;;;;;2.17;1.33;;;;;;;;;;5069066;28;20360;-77
2022/12/25 11:23:54;;;;;;;2.58;1.23;;;;;;;;;;5052210;28;20025;-79
2022/12/25 11:26:20;;;;;;;2.33;1.58;;;;;;;;;;5070130;28;20059;-78
2022/12/25 11:28:49;;;;;;;2.20;1.50;;;;;;;;;;5069506;28;20063;-78
2022/12/25 11:31:22;;;;;;;1.55;1.40;;;;;;;;;;5069226;28;20073;-78
2022/12/25 11:34:13;;;;;;;6.25;2.20;;;;;;;;;;5066347;28;20037;-78
2022/12/25 11:36:51;;;;;;;2.22;1.10;;;;;;;;;;5065725;28;20291;-78
2022/12/25 11:39:25;;;;;;;3.05;1.40;;;;;;;;;;5069097;28;20024;-78
2022/12/25 11:41:56;;;;;;;1.33;1.10;;;;;;;;;;5069924;28;20030;-78
2022/12/25 11:44:59;;;;;;;1.77;1.10;;;;;;;;;;5068399;28;20025;-78
2022/12/25 11:47:36;;;;;;;3.15;1.40;;;;;;;;;;5067605;28;20456;-78
2022/12/25 11:50:22;;;;;;;3.00;1.40;;;;;;;;;;5067764;28;20028;-78
2022/12/25 11:52:48;;;;;;;3.97;1.90;;;;;;;;;;5068884;28;20024;-78
2022/12/25 11:55:18;;;;;;;1.50;1.40;;;;;;;;;;5069920;28;20035;-78
2022/12/25 11:57:47;;;;;;;1.67;1.45;;;;;;;;;;5069497;28;20095;-78
2022/12/25 12:00:16;;;;;;;2.25;1.65;;;;;;;;;;5071896;28;20483;-78
2022/12/25 12:02:52;;;;;;;2.85;1.30;;;;;;;;;;5068433;28;20399;-78
2022/12/25 12:05:21;;;;;;;2.05;1.40;;;;;;;;;;5068405;28;20123;-78
2022/12/25 12:08:15;;;;;;;2.70;1.40;;;;;;;;;;5069701;28;20028;-78
2022/12/25 12:11:14;;;;;;;2.42;1.50;;;;;;;;;;5067462;28;20042;-78
2022/12/25 12:14:04;;;;;;;2.85;1.33;;;;;;;;;;5068174;28;20024;-78
2022/12/25 12:16:30;;;;;;;1.83;1.27;;;;;;;;;;5068233;28;20637;-78
2022/12/25 12:18:57;;;;;;;2.58;1.52;;;;;;;;;;5051867;28;20094;-78
2022/12/25 12:21:26;;;;;;;2.38;1.33;;;;;;;;;;5069452;28;20024;-78
2022/12/25 12:23:54;;;;;;;1.83;1.40;;;;;;;;;;5068937;28;20073;-78
2022/12/25 12:26:24;;;;;;;3.08;1.42;;;;;;;;;;5066621;28;20449;-78
2022/12/25 12:28:53;;;;;;;1.40;1.10;;;;;;;;;;5069924;28;20040;-78
2022/12/25 12:31:18;;;;;;;2.03;1.60;;;;;;;;;;5068074;28;20024;-78
2022/12/25 12:34:02;;;;;;;3.92;1.50;;;;;;;;;;5051240;28;20505;-78
2022/12/25 12:36:27;;;;;;;2.80;1.40;;;;;;;;;;5067164;28;20032;-78
2022/12/25 12:38:58;;;;;;;3.05;1.58;;;;;;;;;;5069068;28;20024;-78
2022/12/25 12:41:35;;;;;;;2.72;1.70;;;;;;;;;;5067869;28;20509;-78
2022/12/25 12:44:04;;;;;;;2.35;1.20;;;;;;;;;;5069585;28;20419;-78
2022/12/25 12:46:35;;;;;;;2.45;1.40;;;;;;;;;;5070157;28;20032;-77
2022/12/25 12:49:09;;;;;;;4.57;1.80;;;;;;;;;;5065302;28;20036;-78
2022/12/25 12:51:36;;;;;;;1.55;1.20;;;;;;;;;;5069258;28;20040;-78
2022/12/25 12:54:21;;;;;;;2.88;1.35;;;;;;;;;;5046063;28;21246;-78
2022/12/25 12:57:07;;;;;;;1.30;1.17;;;;;;;;;;5066571;28;20552;-78
2022/12/25 12:59:38;;;;;;;2.08;1.10;;;;;;;;;;5069918;28;20035;-78
2022/12/25 13:02:43;;;;;;;1.33;1.13;;;;;;;;;;5069019;28;20070;-77
2022/12/25 13:05:29;;;;;;;1.83;1.45;;;;;;;;;;5072577;28;20036;-77
2022/12/25 13:08:03;;;;;;;1.55;1.20;;;;;;;;;;5067027;28;20016;-76
2022/12/25 13:10:37;;;;;;;1.30;1.10;;;;;;;;;;5067331;28;20170;-77
2022/12/25 13:13:14;;;;;;;1.45;1.02;;;;;;;;;;5063791;28;20035;-77
2022/12/25 13:15:42;;;;;;;2.17;1.30;;;;;;;;;;5066116;28;20047;-77
2022/12/25 13:18:13;;;;;;;3.67;1.55;;;;;;;;;;5052352;28;20032;-77
2022/12/25 13:20:55;;;;;;;1.23;0.98;;;;;;;;;;5069835;28;20111;-78
2022/12/25 13:23:32;;;;;;;1.60;1.00;;;;;;;;;;5049658;28;20085;-78
2022/12/25 13:26:00;;;;;;;3.00;1.13;;;;;;;;;;5068204;28;20527;-77
2022/12/25 13:28:28;;;;;;;2.45;1.10;;;;;;;;;;5069117;28;20024;-78
2022/12/25 13:31:12;;;;;;;2.80;0.90;;;;;;;;;;5067891;28;20108;-78
2022/12/25 13:33:45;;;;;;;1.20;0.90;;;;;;;;;;5066426;28;20048;-78
2022/12/25 13:36:14;;;;;;;1.60;0.98;;;;;;;;;;5063567;28;20040;-77
2022/12/25 13:38:44;;;;;;;1.25;0.90;;;;;;;;;;5067999;28;20020;-77
2022/12/25 13:44:05;;;;;;;1.17;0.77;;;;;;;;;;5069263;28;20128;-77
2022/12/25 13:46:30;;;;;;;1.63;0.95;;;;;;;;;;5069788;28;20102;-78
2022/12/25 13:49:03;;;;;;;1.52;0.98;;;;;;;;;;5072195;28;20111;-77
2022/12/25 13:51:28;;;;;;;4.30;1.05;;;;;;;;;;5071985;28;20066;-77
2022/12/25 13:54:06;;;;;;;5.75;1.05;;;;;;;;;;5070849;28;20282;-78
2022/12/25 13:56:36;;;;;;;3.55;1.05;;;;;;;;;;5071099;28;20124;-77
2022/12/25 13:59:04;;;;;;;1.55;0.90;;;;;;;;;;5067863;28;20024;-77
2022/12/25 14:01:32;;;;;;;0.98;0.88;;;;;;;;;;5070016;28;20063;-78
2022/12/25 14:04:00;;;;;;;1.55;0.90;;;;;;;;;;5069236;28;20116;-77
2022/12/25 14:06:28;;;;;;;1.20;1.08;;;;;;;;;;5068651;28;20024;-77
2022/12/25 14:08:55;;;;;;;3.30;0.90;;;;;;;;;;5053718;28;20749;-77
2022/12/25 14:11:22;;;;;;;1.13;1.00;;;;;;;;;;5073756;28;20479;-77
2022/12/25 14:13:54;;;;;;;1.40;1.02;;;;;;;;;;5069841;28;20032;-77
2022/12/25 14:16:20;;;;;;;2.40;1.33;;;;;;;;;;5053152;28;20047;-76
2022/12/25 14:18:58;;;;;;;1.27;1.10;;;;;;;;;;5071986;28;20081;-77
2022/12/25 14:21:43;;;;;;;1.27;0.90;;;;;;;;;;5070407;28;20020;-77
2022/12/25 14:24:13;;;;;;;1.50;1.00;;;;;;;;;;5068200;28;20024;-78
2022/12/25 14:26:39;;;;;;;1.13;0.90;;;;;;;;;;5071209;28;20036;-79
2022/12/25 14:29:04;;;;;;;1.38;1.15;;;;;;;;;;5071652;28;20104;-79
2022/12/25 14:31:31;;;;;;;2.55;1.75;;;;;;;;;;5053064;28;20040;-78
2022/12/25 14:34:01;;;;;;;2.70;1.50;;;;;;;;;;5053466;28;20035;-78
2022/12/25 14:36:28;;;;;;;3.45;1.67;;;;;;;;;;5072027;28;20070;-79
2022/12/25 14:38:58;;;;;;;2.05;1.60;;;;;;;;;;5071987;28;20024;-79
2022/12/25 14:41:36;;;;;;;3.28;2.00;;;;;;;;;;5072466;28;20029;-78
2022/12/25 14:44:24;;;;;;;2.72;1.60;;;;;;;;;;5069996;28;20040;-78
2022/12/25 14:46:50;;;;;;;2.00;1.63;;;;;;;;;;5070921;28;20043;-77
2022/12/25 14:49:23;;;;;;;2.78;1.70;;;;;;;;;;5055976;28;20430;-79
2022/12/25 14:51:52;;;;;;;1.67;1.10;;;;;;;;;;5071525;28;20059;-79
2022/12/25 14:54:21;;;;;;;1.48;1.10;;;;;;;;;;5069595;28;20048;-77
2022/12/25 14:56:49;;;;;;;2.13;1.20;;;;;;;;;;5071991;28;20024;-77
2022/12/25 14:59:22;;;;;;;1.38;1.20;;;;;;;;;;5054439;28;20389;-77
2022/12/25 15:01:57;;;;;;;4.18;1.08;;;;;;;;;;5053475;28;20016;-79
2022/12/25 15:04:26;;;;;;;1.80;1.02;;;;;;;;;;5072920;28;20020;-77
2022/12/25 15:06:56;;;;;;;2.58;1.35;;;;;;;;;;5056985;28;20029;-77
2022/12/25 15:09:22;;;;;;;1.38;0.98;;;;;;;;;;5074881;28;20424;-77
2022/12/25 15:11:54;;;;;;;1.17;1.05;;;;;;;;;;5083817;28;20034;-80
2022/12/25 15:14:20;;;;;;;1.38;1.10;;;;;;;;;;5094412;28;20084;-80
2022/12/25 15:16:51;;;;;;;1.50;0.82;;;;;;;;;;5097522;28;20020;-80
2022/12/25 15:19:21;;;;;;;3.33;1.88;;;;;;;;;;5097284;28;20027;-80
2022/12/25 15:21:46;;;;;;;3.15;1.85;;;;;;;;;;5081616;28;20036;-76
2022/12/25 15:24:12;;;;;;;3.95;1.00;;;;;;;;;;5080885;28;20398;-76
2022/12/25 15:26:38;;;;;;;1.50;1.17;;;;;;;;;;5066744;28;20024;-75
2022/12/25 15:29:07;;;;;;;1.75;1.30;;;;;;;;;;5083621;28;20088;-78
2022/12/25 15:31:34;;;;;;;2.03;1.10;;;;;;;;;;5053335;28;20028;-78
2022/12/25 15:34:05;;;;;;;2.17;1.38;;;;;;;;;;5069450;28;20479;-77
2022/12/25 15:36:32;;;;;;;2.30;1.40;;;;;;;;;;5068187;28;20494;-77
2022/12/25 15:39:03;;;;;;;1.60;1.30;;;;;;;;;;5070561;28;20100;-76
2022/12/25 15:44:21;;;;;;;1.50;1.27;;;;;;;;;;5068231;28;20047;-78
2022/12/25 15:46:47;;;;;;;1.40;1.02;;;;;;;;;;5080283;28;20028;-77
2022/12/25 15:49:13;;;;;;;1.60;1.00;;;;;;;;;;5070221;28;20023;-77
2022/12/25 15:51:45;;;;;;;1.70;1.10;;;;;;;;;;5068669;28;20033;-77
2022/12/25 15:54:10;;;;;;;2.13;0.93;;;;;;;;;;5068517;28;20028;-77
2022/12/25 15:56:46;;;;;;;2.22;1.17;;;;;;;;;;5070401;28;20035;-77
2022/12/25 15:59:14;;;;;;;1.60;1.33;;;;;;;;;;5063151;28;20422;-77
2022/12/25 16:01:54;;;;;;;2.88;1.40;;;;;;;;;;5068410;28;20461;-76
2022/12/25 16:04:21;;;;;;;5.82;2.47;;;;;;;;;;5067587;28;20020;-77
2022/12/25 16:06:50;;;;;;;2.60;1.48;;;;;;;;;;5069341;28;20032;-78
2022/12/25 16:09:18;;;;;;;1.52;0.90;;;;;;;;;;5051510;28;20025;-77
2022/12/25 16:11:45;;;;;;;1.73;1.17;;;;;;;;;;5069530;28;20123;-77
2022/12/25 16:14:11;;;;;;;1.10;1.00;;;;;;;;;;5068163;28;20024;-76
2022/12/25 16:16:44;;;;;;;2.88;1.58;;;;;;;;;;5069271;28;20044;-78
2022/12/25 16:19:11;;;;;;;3.20;1.15;;;;;;;;;;5068126;28;20502;-77
2022/12/25 16:21:43;;;;;;;1.10;1.00;;;;;;;;;;5068723;28;20449;-79
2022/12/25 16:24:09;;;;;;;1.67;1.25;;;;;;;;;;5050371;28;20024;-77
2022/12/25 16:26:37;;;;;;;3.00;1.20;;;;;;;;;;5068711;28;20102;-78
2022/12/25 16:29:03;;;;;;;1.00;0.90;;;;;;;;;;5069957;28;20103;-77
2022/12/25 16:31:29;;;;;;;3.03;1.77;;;;;;;;;;5051900;28;20070;-77
2022/12/25 16:33:59;;;;;;;1.73;1.50;;;;;;;;;;5067223;28;20028;-79
2022/12/25 16:36:29;;;;;;;3.30;2.20;;;;;;;;;;5069266;28;20032;-79
2022/12/25 16:38:56;;;;;;;3.00;1.80;;;;;;;;;;5051642;28;20081;-77
2022/12/25 16:41:22;;;;;;;1.55;1.20;;;;;;;;;;5069464;28;20032;-78
2022/12/25 16:43:48;;;;;;;1.60;1.50;;;;;;;;;;5068617;28;20108;-78
2022/12/25 16:46:20;;;;;;;1.75;1.38;;;;;;;;;;5069679;28;20023;-77
2022/12/25 16:48:45;;;;;;;2.05;1.27;;;;;;;;;;5069716;28;20066;-78